Time;durP1;ratioP1;P1;durP2;ratioP2;P2;SDS_P1;SDS_P2;PMS_P1;PMS_P2;Temp;Humidity;BMP_temperature;BMP_pressure;BME280_temperature;BME280_humidity;BME280_pressure;Samples;Min_cycle;Max_cycle;Signal;HPM_P1;HPM_P2
2022/05/18 00:02:17;;;;;;;12.00;2.90;;;;;;;13.16;41.35;98724.98;25058;1313;3026395;-60
2022/05/18 00:04:46;;;;;;;10.10;2.40;;;;;;;13.24;41.19;98715.84;25088;1316;3051675;-62
2022/05/18 00:07:16;;;;;;;5.20;2.20;;;;;;;13.31;41.13;98717.35;25140;1313;3027134;-60
2022/05/18 00:09:45;;;;;;;7.60;2.20;;;;;;;13.20;41.16;98728.83;25064;1313;3026277;-60
2022/05/18 00:12:14;;;;;;;9.60;2.30;;;;;;;13.22;41.06;98726.02;25100;1313;3054877;-63
2022/05/18 00:14:44;;;;;;;7.50;2.30;;;;;;;13.26;40.89;98718.14;25106;1315;3026476;-59
2022/05/18 00:17:13;;;;;;;14.20;2.30;;;;;;;13.25;40.70;98718.94;25056;1313;3026368;-61
2022/05/18 00:19:42;;;;;;;12.20;3.00;;;;;;;13.12;40.83;98722.80;25095;1316;3052008;-59
2022/05/18 00:22:11;;;;;;;9.20;2.80;;;;;;;12.99;41.09;98716.30;25069;1313;3026594;-62
2022/05/18 00:24:41;;;;;;;7.00;2.00;;;;;;;13.02;40.81;98712.23;25082;1315;3048488;-61
2022/05/18 00:27:11;;;;;;;4.10;2.10;;;;;;;13.03;40.63;98714.36;25098;1312;3026599;-61
2022/05/18 00:29:40;;;;;;;4.20;2.00;;;;;;;13.05;40.60;98704.75;25109;1316;3026784;-60
2022/05/18 00:32:09;;;;;;;6.80;2.10;;;;;;;13.02;40.72;98709.06;25113;1316;3026620;-63
2022/05/18 00:34:39;;;;;;;9.30;1.90;;;;;;;12.94;40.82;98712.04;25053;1312;3054242;-65
2022/05/18 00:37:08;;;;;;;6.40;2.10;;;;;;;12.89;40.91;98706.61;25150;1312;3026070;-61
2022/05/18 00:39:38;;;;;;;5.90;1.80;;;;;;;12.93;40.86;98704.02;25096;1312;3026410;-62
2022/05/18 00:42:19;;;;;;;7.20;1.60;;;;;;;12.90;40.69;98700.59;25014;1315;3026932;-59
2022/05/18 00:44:48;;;;;;;7.30;2.20;;;;;;;12.98;40.39;98699.39;25104;1313;3053428;-61
2022/05/18 00:47:17;;;;;;;4.50;1.60;;;;;;;12.90;40.27;98698.80;25042;1315;3027527;-59
2022/05/18 00:49:49;;;;;;;6.40;1.50;;;;;;;12.94;40.04;98709.86;25077;1315;3054186;-61
2022/05/18 00:52:20;;;;;;;7.30;1.70;;;;;;;12.96;39.86;98711.17;25108;1313;3026574;-60
2022/05/18 00:54:50;;;;;;;10.20;1.80;;;;;;;12.91;39.68;98711.85;25148;1313;3026737;-59
2022/05/18 00:57:28;;;;;;;6.50;1.60;;;;;;;12.87;40.15;98708.70;25030;1316;3026927;-60
2022/05/18 01:00:01;;;;;;;13.30;2.70;;;;;;;12.79;40.43;98705.98;25056;1312;3052819;-58
2022/05/18 01:02:32;;;;;;;7.60;2.50;;;;;;;12.76;40.37;98703.60;25150;1313;3026502;-60
2022/05/18 01:05:03;;;;;;;3.40;1.70;;;;;;;12.66;40.75;98698.33;25044;1313;3027981;-61
2022/05/18 01:07:38;;;;;;;4.40;1.40;;;;;;;12.57;40.83;98700.56;25157;1313;3026846;-63
2022/05/18 01:10:07;;;;;;;7.10;1.90;;;;;;;12.64;40.54;98699.34;25078;1313;3054213;-62
2022/05/18 01:12:36;;;;;;;7.20;1.70;;;;;;;12.67;40.55;98701.89;25091;1313;3026291;-61
2022/05/18 01:15:14;;;;;;;4.50;1.70;;;;;;;12.65;40.37;98700.98;25035;1315;3055177;-58
2022/05/18 01:17:46;;;;;;;4.20;1.60;;;;;;;12.70;40.35;98700.75;25093;1316;3054571;-61
2022/05/18 01:20:19;;;;;;;4.00;1.60;;;;;;;12.67;40.21;98707.33;25065;1313;3026323;-62
2022/05/18 01:23:10;;;;;;;9.20;1.70;;;;;;;12.62;40.40;98702.63;25070;1316;3026451;-62
2022/05/18 01:25:54;;;;;;;2.80;1.40;;;;;;;12.67;40.19;98702.63;25089;1312;3054956;-59
2022/05/18 01:28:25;;;;;;;4.70;1.70;;;;;;;12.59;40.53;98699.90;25096;1312;3055539;-63
2022/05/18 01:30:54;;;;;;;9.80;1.60;;;;;;;12.56;40.97;98697.20;25071;1312;3026617;-62
2022/05/18 01:33:23;;;;;;;3.00;1.50;;;;;;;12.64;40.74;98696.36;25057;1313;3026328;-60
2022/05/18 01:35:52;;;;;;;7.10;1.70;;;;;;;12.57;40.76;98689.52;25061;1315;3054603;-62
2022/05/18 01:38:21;;;;;;;6.20;1.40;;;;;;;12.49;41.22;98691.19;25067;1313;3027181;-62
2022/05/18 01:41:13;;;;;;;5.80;1.60;;;;;;;12.65;40.95;98694.71;25103;1313;3026743;-60
2022/05/18 01:43:47;;;;;;;4.40;1.70;;;;;;;12.62;41.09;98697.73;25094;1313;3053165;-61
2022/05/18 01:46:18;;;;;;;6.20;1.80;;;;;;;12.58;41.20;98695.45;25108;1316;3051689;-58
2022/05/18 01:48:51;;;;;;;6.70;1.60;;;;;;;12.52;41.52;98700.61;25105;1313;3026367;-61
2022/05/18 01:51:33;;;;;;;2.90;1.50;;;;;;;12.51;41.44;98697.77;25089;1313;3029492;-61
2022/05/18 01:54:02;;;;;;;2.90;1.50;;;;;;;12.58;41.40;98700.17;25104;1312;3052485;-60
2022/05/18 01:56:31;;;;;;;6.00;1.50;;;;;;;12.60;41.17;98704.52;25047;1313;3026854;-62
2022/05/18 01:59:00;;;;;;;3.40;1.50;;;;;;;12.48;41.40;98706.42;25092;1316;3026222;-59
2022/05/18 02:01:29;;;;;;;6.30;1.30;;;;;;;12.53;41.38;98706.14;25060;1313;3055537;-62
2022/05/18 02:03:59;;;;;;;7.60;1.80;;;;;;;12.57;41.38;98701.96;25063;1313;3028146;-60
2022/05/18 02:06:29;;;;;;;3.80;1.50;;;;;;;12.54;41.22;98700.80;25105;1312;3028582;-61
2022/05/18 02:08:59;;;;;;;3.30;1.30;;;;;;;12.49;41.25;98706.33;25092;1313;3054728;-60
2022/05/18 02:11:28;;;;;;;7.00;1.90;;;;;;;12.50;41.47;98704.17;25111;1313;3027205;-63
2022/05/18 02:13:57;;;;;;;2.40;1.30;;;;;;;12.41;41.62;98700.48;25056;1312;3026847;-61
2022/05/18 02:16:26;;;;;;;7.50;2.00;;;;;;;12.55;41.38;98694.09;25114;1313;3052074;-59
2022/05/18 02:18:55;;;;;;;5.10;1.60;;;;;;;12.61;41.33;98699.92;25078;1313;3026579;-62
2022/05/18 02:21:24;;;;;;;6.90;1.60;;;;;;;12.48;41.79;98703.05;25083;1312;3050943;-62
2022/05/18 02:23:55;;;;;;;9.20;1.40;;;;;;;12.48;41.77;98704.49;25081;1317;3027140;-61
2022/05/18 02:26:23;;;;;;;6.00;1.30;;;;;;;12.48;41.89;98699.89;25136;1313;3026742;-62
2022/05/18 02:28:53;;;;;;;3.40;1.20;;;;;;;12.43;42.06;98702.60;25069;1319;3050794;-63
2022/05/18 02:31:22;;;;;;;4.50;1.50;;;;;;;12.33;42.31;98711.31;25104;1318;3028803;-61
2022/05/18 02:33:52;;;;;;;5.90;1.60;;;;;;;12.33;42.48;98703.41;25081;1313;3070494;-63
2022/05/18 02:36:21;;;;;;;4.30;1.50;;;;;;;12.36;42.41;98704.04;25051;1313;3026299;-62
2022/05/18 02:38:50;;;;;;;5.60;1.40;;;;;;;12.40;42.39;98698.43;25112;1319;3052190;-63
2022/05/18 02:41:19;;;;;;;8.20;1.80;;;;;;;12.38;42.54;98700.04;25053;1316;3026857;-60
2022/05/18 02:43:51;;;;;;;7.50;1.40;;;;;;;12.32;42.57;98701.72;25132;1313;3026215;-60
2022/05/18 02:46:21;;;;;;;10.20;1.50;;;;;;;12.36;42.56;98700.38;25123;1315;3051402;-61
2022/05/18 02:48:53;;;;;;;5.40;1.50;;;;;;;12.38;42.62;98700.71;25112;1313;3026828;-59
2022/05/18 02:51:22;;;;;;;4.20;1.40;;;;;;;12.44;42.47;98706.04;25144;1313;3026602;-64
2022/05/18 02:53:52;;;;;;;11.00;1.60;;;;;;;12.23;43.06;98705.60;25116;1319;3027328;-58
2022/05/18 02:56:26;;;;;;;4.80;1.50;;;;;;;12.21;43.10;98710.33;25427;1316;3026330;-59
2022/05/18 02:58:56;;;;;;;5.20;2.20;;;;;;;12.19;43.15;98710.85;25492;1313;3026570;-58
2022/05/18 03:01:27;;;;;;;5.30;1.80;;;;;;;12.15;43.34;98707.42;25480;1313;3026122;-57
2022/05/18 03:03:56;;;;;;;6.00;1.80;;;;;;;12.16;43.33;98709.81;25233;1315;3026497;-63
2022/05/18 03:06:26;;;;;;;4.00;1.60;;;;;;;12.14;43.24;98715.25;25114;1313;3026695;-59
2022/05/18 03:08:56;;;;;;;7.80;1.40;;;;;;;12.27;43.05;98715.98;25117;1313;3049701;-58
2022/05/18 03:11:25;;;;;;;7.90;1.80;;;;;;;12.34;43.02;98716.13;25068;1316;3026900;-62
2022/05/18 03:13:54;;;;;;;3.70;1.40;;;;;;;12.35;42.79;98710.48;25107;1313;3058355;-63
2022/05/18 03:16:23;;;;;;;4.60;1.70;;;;;;;12.25;42.62;98723.33;25042;1313;3026296;-61
2022/05/18 03:18:53;;;;;;;8.10;1.30;;;;;;;12.25;43.04;98725.61;25051;1316;3054697;-59
2022/05/18 03:24:14;;;;;;;4.50;1.60;;;;;;;12.22;43.19;98726.02;25123;1313;3053855;-62
2022/05/18 03:26:44;;;;;;;4.60;1.40;;;;;;;12.21;43.14;98731.23;25096;1312;3028953;-59
2022/05/18 03:29:13;;;;;;;6.50;1.70;;;;;;;12.17;43.32;98732.04;25057;1313;3026732;-63
2022/05/18 03:31:44;;;;;;;3.10;1.80;;;;;;;12.28;43.06;98730.66;25071;1316;3054265;-62
2022/05/18 03:34:13;;;;;;;3.30;1.50;;;;;;;12.31;42.94;98732.57;25047;1316;3026711;-64
2022/05/18 03:36:42;;;;;;;10.70;1.70;;;;;;;12.31;43.10;98734.48;25095;1312;3027000;-60
2022/05/18 03:39:11;;;;;;;8.00;1.30;;;;;;;12.14;43.37;98743.02;25043;1315;3027204;-60
2022/05/18 03:41:43;;;;;;;3.60;1.50;;;;;;;12.20;43.55;98745.86;25097;1313;3051729;-59
2022/05/18 03:44:12;;;;;;;7.90;1.70;;;;;;;12.27;43.26;98754.44;25109;1313;3026852;-62
2022/05/18 03:46:41;;;;;;;5.10;1.60;;;;;;;12.35;43.45;98763.28;25084;1313;3026481;-63
2022/05/18 03:49:10;;;;;;;5.50;1.60;;;;;;;12.29;43.64;98772.00;25158;1316;3055315;-61
2022/05/18 03:51:39;;;;;;;8.60;2.00;;;;;;;12.37;43.64;98781.21;25069;1316;3026743;-62
2022/05/18 03:54:08;;;;;;;5.90;1.80;;;;;;;12.33;43.77;98789.81;25068;1316;3054686;-59
2022/05/18 03:56:37;;;;;;;6.80;2.50;;;;;;;12.30;43.78;98799.70;25067;1316;3026780;-60
2022/05/18 03:59:06;;;;;;;9.60;2.30;;;;;;;12.33;43.68;98804.52;25105;1316;3050180;-60
2022/05/18 04:01:36;;;;;;;5.50;1.60;;;;;;;12.31;43.76;98812.06;25132;1316;3026577;-62
2022/05/18 04:04:05;;;;;;;6.70;1.40;;;;;;;12.28;43.84;98812.15;25125;1319;3027109;-61
2022/05/18 04:06:35;;;;;;;5.40;1.50;;;;;;;12.19;44.05;98815.11;25073;1312;3026671;-62
2022/05/18 04:09:04;;;;;;;5.90;1.50;;;;;;;12.33;43.92;98814.38;25099;1313;3054656;-62
2022/05/18 04:11:33;;;;;;;7.50;1.70;;;;;;;12.33;43.93;98814.00;25080;1313;3026294;-60
2022/05/18 04:14:02;;;;;;;9.00;1.60;;;;;;;12.43;43.52;98825.00;25119;1312;3026352;-62
2022/05/18 04:16:31;;;;;;;14.00;2.40;;;;;;;12.46;43.78;98824.77;25078;1312;3054835;-61
2022/05/18 04:19:00;;;;;;;7.90;1.80;;;;;;;12.37;43.93;98823.86;25072;1316;3026944;-60
2022/05/18 04:21:31;;;;;;;6.30;1.50;;;;;;;12.32;44.30;98826.06;25054;1316;3048536;-60
2022/05/18 04:24:00;;;;;;;6.80;1.80;;;;;;;12.32;44.18;98828.48;25098;1316;3026216;-60
2022/05/18 04:26:29;;;;;;;7.30;2.90;;;;;;;12.38;43.99;98826.95;25074;1316;3026819;-61
2022/05/18 04:28:58;;;;;;;4.00;1.80;;;;;;;12.39;44.02;98826.69;25106;1316;3051565;-62
2022/05/18 04:31:27;;;;;;;10.90;1.80;;;;;;;12.45;43.78;98827.48;25069;1313;3030033;-63
2022/05/18 04:33:56;;;;;;;4.80;1.50;;;;;;;12.38;44.16;98832.94;25098;1316;3070746;-61
2022/05/18 04:36:25;;;;;;;3.30;1.90;;;;;;;12.28;44.36;98836.73;25064;1315;3028446;-61
2022/05/18 04:38:54;;;;;;;10.00;2.00;;;;;;;12.29;44.32;98832.98;25115;1313;3053041;-61
2022/05/18 04:41:24;;;;;;;4.10;1.60;;;;;;;12.37;44.21;98836.91;25107;1312;3026860;-63
2022/05/18 04:43:53;;;;;;;10.60;1.90;;;;;;;12.45;44.06;98835.27;25056;1313;3026500;-61
2022/05/18 04:46:22;;;;;;;4.00;1.60;;;;;;;12.40;44.54;98835.11;25091;1313;3055111;-64
2022/05/18 04:48:51;;;;;;;7.30;2.00;;;;;;;12.43;44.14;98826.95;25057;1315;3026876;-59
2022/05/18 04:51:20;;;;;;;4.50;1.90;;;;;;;12.45;44.37;98829.74;25129;1315;3054728;-62
2022/05/18 04:53:49;;;;;;;6.20;1.80;;;;;;;12.44;44.56;98826.86;25088;1315;3027139;-61
2022/05/18 04:56:18;;;;;;;5.00;1.90;;;;;;;12.40;44.62;98828.39;25184;1313;3049257;-61
2022/05/18 04:58:47;;;;;;;10.00;2.00;;;;;;;12.54;44.10;98823.11;25095;1313;3026940;-60
2022/05/18 05:01:16;;;;;;;9.20;1.70;;;;;;;12.57;44.33;98817.94;25075;1316;3058337;-61
2022/05/18 05:03:45;;;;;;;8.90;2.20;;;;;;;12.61;44.23;98815.14;25072;1313;3026975;-63
2022/05/18 05:06:13;;;;;;;10.70;2.30;;;;;;;12.65;44.35;98810.30;25133;1313;3054340;-59
2022/05/18 05:08:43;;;;;;;9.60;2.20;;;;;;;12.71;44.13;98808.04;25056;1312;3026793;-64
2022/05/18 05:11:13;;;;;;;10.10;1.90;;;;;;;12.85;43.69;98808.70;25091;1312;3027184;-63
2022/05/18 05:13:42;;;;;;;10.50;2.60;;;;;;;12.93;43.80;98807.20;24732;1313;3026747;-60
2022/05/18 05:16:11;;;;;;;9.00;2.40;;;;;;;13.01;43.68;98803.16;25119;1313;3026530;-62
2022/05/18 05:18:40;;;;;;;4.00;1.90;;;;;;;13.14;43.62;98806.88;25083;1313;3051612;-62
2022/05/18 05:21:09;;;;;;;6.40;1.90;;;;;;;13.19;43.42;98801.52;25069;1313;3026495;-61
2022/05/18 05:23:38;;;;;;;8.50;2.00;;;;;;;13.21;43.15;98799.11;25114;1312;3058755;-60
2022/05/18 05:26:07;;;;;;;7.10;2.70;;;;;;;13.22;43.12;98799.34;25088;1312;3026865;-63
2022/05/18 05:28:37;;;;;;;4.20;1.90;;;;;;;13.35;42.74;98796.22;25078;1312;3053640;-61
2022/05/18 05:31:07;;;;;;;10.80;1.80;;;;;;;13.40;42.92;98799.16;25099;1313;3026473;-61
2022/05/18 05:33:39;;;;;;;7.00;1.70;;;;;;;13.44;42.47;98801.67;25134;1313;3051173;-59
2022/05/18 05:36:08;;;;;;;5.80;1.90;;;;;;;13.47;42.72;98799.27;25104;1313;3028511;-62
2022/05/18 05:38:37;;;;;;;13.30;2.10;;;;;;;13.62;42.65;98805.79;25066;1312;3026848;-62
2022/05/18 05:41:06;;;;;;;13.60;2.20;;;;;;;13.66;42.34;98807.71;25116;1312;3054361;-62
2022/05/18 05:43:36;;;;;;;12.10;2.10;;;;;;;13.54;42.46;98801.15;25095;1312;3026891;-65
2022/05/18 05:46:06;;;;;;;9.00;2.20;;;;;;;13.61;42.43;98808.00;25119;1313;3050750;-59
2022/05/18 05:48:36;;;;;;;6.40;2.60;;;;;;;13.64;42.29;98808.11;25039;1313;3026916;-64
2022/05/18 05:51:05;;;;;;;10.20;2.00;;;;;;;13.63;42.35;98812.77;25048;1313;3027078;-63
2022/05/18 05:53:35;;;;;;;10.30;2.10;;;;;;;13.59;42.65;98815.02;25060;1313;3027035;-63
2022/05/18 05:56:08;;;;;;;6.80;2.10;;;;;;;13.47;43.08;98819.29;25039;1313;3026618;-60
2022/05/18 05:58:38;;;;;;;8.90;2.20;;;;;;;13.65;42.73;98819.31;25124;1316;3026515;-62
2022/05/18 06:01:08;;;;;;;9.70;2.20;;;;;;;13.67;42.78;98825.21;25033;1315;3026933;-61
2022/05/18 06:03:38;;;;;;;15.70;2.50;;;;;;;13.46;43.12;98827.17;25056;1313;3026421;-61
2022/05/18 06:06:08;;;;;;;5.70;2.00;;;;;;;13.40;43.17;98829.61;25140;1312;3026417;-62
2022/05/18 06:08:38;;;;;;;8.90;2.40;;;;;;;13.46;43.24;98836.67;25067;1313;3050667;-63
2022/05/18 06:11:09;;;;;;;8.90;2.60;;;;;;;13.30;43.19;98834.97;25128;1313;3026815;-62
2022/05/18 06:13:38;;;;;;;11.10;2.40;;;;;;;13.28;43.56;98837.58;25110;1315;3026556;-59
2022/05/18 06:16:08;;;;;;;12.00;2.40;;;;;;;13.42;43.24;98835.08;25094;1313;3026713;-60
2022/05/18 06:18:38;;;;;;;8.60;1.90;;;;;;;13.48;43.34;98838.30;25032;1316;3070298;-61
2022/05/18 06:21:12;;;;;;;10.00;2.50;;;;;;;13.42;43.84;98846.30;25094;1312;3051701;-61
2022/05/18 06:23:42;;;;;;;11.80;2.30;;;;;;;13.51;43.71;98853.83;25092;1312;3025921;-64
2022/05/18 06:26:11;;;;;;;6.30;2.10;;;;;;;13.41;44.15;98849.52;25067;1312;3026808;-60
2022/05/18 06:28:41;;;;;;;9.40;2.10;;;;;;;13.62;43.62;98855.77;25132;1312;3048412;-59
2022/05/18 06:31:10;;;;;;;11.60;2.10;;;;;;;13.59;43.35;98860.89;25093;1313;3026130;-61
2022/05/18 06:33:40;;;;;;;11.20;2.20;;;;;;;13.53;42.97;98854.17;25030;1315;3026124;-62
2022/05/18 06:36:09;;;;;;;5.40;1.80;;;;;;;13.58;43.27;98853.80;25054;1312;3028016;-60
2022/05/18 06:38:38;;;;;;;9.10;2.10;;;;;;;13.85;42.89;98854.20;25099;1313;3026590;-64
2022/05/18 06:41:22;;;;;;;15.10;2.20;;;;;;;13.90;42.45;98853.96;25061;1313;3054918;-62
2022/05/18 06:43:53;;;;;;;;;;;;;;;13.86;42.11;98853.91;25113;1315;3059234;-63
2022/05/18 06:46:23;;;;;;;6.80;1.80;;;;;;;13.86;41.80;98858.31;25143;1313;3027303;-62
2022/05/18 06:48:52;;;;;;;9.00;2.10;;;;;;;13.90;41.89;98857.15;25103;1312;3026388;-62
2022/05/18 06:51:24;;;;;;;11.90;2.00;;;;;;;13.88;41.66;98857.64;25072;1313;3027708;-63
2022/05/18 06:53:53;;;;;;;7.70;1.80;;;;;;;13.88;41.88;98856.59;25071;1313;3026485;-61
2022/05/18 06:56:25;;;;;;;11.40;2.40;;;;;;;14.02;41.16;98854.73;25148;1315;3026651;-59
2022/05/18 06:58:55;;;;;;;7.90;2.30;;;;;;;14.07;41.53;98851.98;25081;1313;3027149;-58
2022/05/18 07:01:24;;;;;;;6.20;1.80;;;;;;;14.34;40.56;98854.09;25154;1313;3026555;-62
2022/05/18 07:03:53;;;;;;;12.60;1.90;;;;;;;14.34;39.52;98851.49;25110;1312;3050002;-61
2022/05/18 07:06:28;;;;;;;5.60;1.80;;;;;;;14.34;39.29;98856.06;25103;1316;3026831;-61
2022/05/18 07:08:58;;;;;;;11.40;1.90;;;;;;;14.39;38.96;98857.18;25086;1312;3026519;-60
2022/05/18 07:11:27;;;;;;;8.80;2.00;;;;;;;14.76;38.31;98861.48;25045;1313;3027366;-63
2022/05/18 07:13:58;;;;;;;7.30;1.80;;;;;;;14.94;37.92;98861.61;25097;1312;3026402;-59
2022/05/18 07:16:27;;;;;;;4.30;1.40;;;;;;;14.89;37.35;98862.58;25108;1312;3055179;-61
2022/05/18 07:18:56;;;;;;;7.00;1.60;;;;;;;14.92;36.93;98864.26;25103;1312;3026518;-60
2022/05/18 07:21:26;;;;;;;7.60;2.00;;;;;;;15.05;36.83;98863.48;25106;1312;3052746;-61
2022/05/18 07:23:55;;;;;;;8.10;1.70;;;;;;;14.92;37.03;98864.45;25059;1313;3026424;-61
2022/05/18 07:26:26;;;;;;;8.20;1.70;;;;;;;15.00;37.27;98859.77;25052;1312;3026963;-59
2022/05/18 07:28:56;;;;;;;6.50;1.90;;;;;;;15.10;36.64;98866.08;25069;1312;3026756;-60
2022/05/18 07:31:25;;;;;;;5.10;1.70;;;;;;;15.02;36.65;98860.41;25059;1316;3026771;-61
2022/05/18 07:33:54;;;;;;;10.90;2.10;;;;;;;15.27;36.56;98864.86;25149;1312;3026266;-60
2022/05/18 07:36:23;;;;;;;6.10;1.60;;;;;;;15.42;36.41;98860.04;25036;1313;3029211;-61
2022/05/18 07:38:52;;;;;;;11.40;1.90;;;;;;;15.49;36.16;98859.27;25110;1312;3055200;-60
2022/05/18 07:41:21;;;;;;;7.20;2.10;;;;;;;15.59;36.36;98858.10;25057;1312;3026897;-62
2022/05/18 07:43:51;;;;;;;4.70;1.80;;;;;;;15.67;36.23;98858.43;25082;1313;3049715;-63
2022/05/18 07:46:20;;;;;;;5.40;1.90;;;;;;;15.73;35.86;98854.89;25096;1313;3026727;-61
2022/05/18 07:48:49;;;;;;;10.90;2.10;;;;;;;15.62;35.77;98854.12;25078;1312;3026416;-63
2022/05/18 07:51:19;;;;;;;6.00;1.50;;;;;;;15.77;35.25;98855.62;25140;1313;3051575;-60
2022/05/18 07:53:47;;;;;;;8.80;1.40;;;;;;;15.85;34.62;98863.36;25412;1312;3026444;-60
2022/05/18 07:56:16;;;;;;;7.10;1.40;;;;;;;15.87;34.53;98863.90;25540;1315;3056940;-58
2022/05/18 07:58:46;;;;;;;9.70;1.40;;;;;;;15.85;34.60;98866.70;25454;1312;3026040;-60
2022/05/18 08:01:15;;;;;;;11.30;1.70;;;;;;;15.78;35.11;98871.30;25135;1313;3027944;-61
2022/05/18 08:03:48;;;;;;;5.00;2.00;;;;;;;15.73;34.16;98868.86;25134;1313;3056889;-60
2022/05/18 08:06:17;;;;;;;5.20;1.50;;;;;;;15.68;33.97;98867.74;25071;1312;3026546;-63
2022/05/18 08:08:47;;;;;;;9.80;1.60;;;;;;;15.76;33.17;98867.02;25082;1313;3027654;-62
2022/05/18 08:16:51;;;;;;;4.60;1.50;;;;;;;16.02;33.03;98854.97;25075;1313;3055158;-60
2022/05/18 08:19:20;;;;;;;13.70;1.80;;;;;;;16.23;31.82;98861.62;25107;1312;3026050;-61
2022/05/18 08:21:50;;;;;;;11.20;1.80;;;;;;;16.21;32.68;98861.12;25135;1312;3049765;-62
2022/05/18 08:24:19;;;;;;;7.90;2.30;;;;;;;16.23;32.77;98866.06;25102;1312;3026275;-64
2022/05/18 08:26:52;;;;;;;6.10;2.20;;;;;;;15.93;32.66;98866.73;25120;1312;3057168;-60
2022/05/18 08:29:22;;;;;;;6.70;2.50;;;;;;;16.09;32.56;98865.45;25054;1316;3026364;-61
2022/05/18 08:31:51;;;;;;;10.30;2.70;;;;;;;16.02;31.88;98867.34;25060;1316;3052239;-63
2022/05/18 08:34:20;;;;;;;10.00;2.90;;;;;;;16.19;31.65;98864.85;25155;1313;3026692;-62
2022/05/18 08:36:50;;;;;;;11.90;3.10;;;;;;;16.39;31.42;98858.95;25115;1313;3053347;-61
2022/05/18 08:39:19;;;;;;;11.30;3.50;;;;;;;16.59;31.73;98859.55;25087;1312;3026541;-59
2022/05/18 08:41:49;;;;;;;6.30;2.70;;;;;;;16.66;31.32;98850.77;25075;1313;3047758;-61
2022/05/18 08:44:20;;;;;;;7.50;2.60;;;;;;;16.71;30.07;98844.71;25148;1313;3026498;-61
2022/05/18 08:46:55;;;;;;;6.60;2.70;;;;;;;16.41;29.22;98845.99;25059;1312;3028877;-61
2022/05/18 08:49:45;;;;;;;7.30;2.40;;;;;;;16.61;29.19;98844.79;25136;1312;3057311;-62
2022/05/18 08:52:41;;;;;;;15.70;3.20;;;;;;;16.88;28.18;98846.17;25081;1313;3053774;-61
2022/05/18 08:55:36;;;;;;;7.50;3.00;;;;;;;17.06;28.20;98840.87;25082;1312;3055330;-62
2022/05/18 08:58:19;;;;;;;8.50;2.40;;;;;;;17.21;28.29;98834.26;25095;1313;3051061;-59
2022/05/18 09:00:53;;;;;;;8.80;3.50;;;;;;;17.49;28.14;98833.79;25116;1312;3068958;-61
2022/05/18 09:03:32;;;;;;;16.10;4.00;;;;;;;17.71;27.71;98832.70;25156;1312;3048950;-62
2022/05/18 09:06:11;;;;;;;13.80;6.00;;;;;;;17.90;26.62;98834.58;25050;1316;3054456;-63
2022/05/18 09:08:42;;;;;;;11.50;4.70;;;;;;;17.91;25.83;98830.72;25127;1313;3055452;-62
2022/05/18 09:11:21;;;;;;;13.60;4.60;;;;;;;17.93;26.35;98827.13;25109;1313;3026431;-61
2022/05/18 09:13:52;;;;;;;7.90;3.50;;;;;;;18.09;26.89;98818.13;25066;1312;3052784;-62
2022/05/18 09:16:33;;;;;;;11.10;3.30;;;;;;;18.28;27.14;98825.71;25079;1315;3026865;-63
2022/05/18 09:19:09;;;;;;;11.80;3.00;;;;;;;18.21;26.81;98825.77;25095;1315;3057536;-60
2022/05/18 09:21:39;;;;;;;10.00;3.00;;;;;;;17.90;27.10;98832.20;25024;1313;3049489;-62
2022/05/18 09:24:27;;;;;;;5.50;2.30;;;;;;;17.69;27.34;98829.89;25106;1313;3026613;-61
2022/05/18 09:27:28;;;;;;;9.20;2.30;;;;;;;17.26;27.72;98829.92;25086;1312;3057178;-59
2022/05/18 09:30:12;;;;;;;6.70;2.20;;;;;;;16.71;27.95;98824.42;25034;1312;3052542;-61
2022/05/18 09:32:58;;;;;;;6.40;2.10;;;;;;;16.98;28.06;98820.61;25111;1313;3055950;-62
2022/05/18 09:36:01;;;;;;;5.70;2.00;;;;;;;16.99;28.17;98817.88;25086;1312;3051344;-60
2022/05/18 09:38:37;;;;;;;9.00;1.90;;;;;;;17.23;28.30;98819.27;25044;1315;3071672;-60
2022/05/18 09:41:08;;;;;;;11.60;2.40;;;;;;;17.39;28.30;98819.73;25082;1313;3051036;-61
2022/05/18 09:43:48;;;;;;;5.40;2.30;;;;;;;17.39;28.54;98819.06;25099;1312;3026070;-62
2022/05/18 09:46:20;;;;;;;6.10;2.40;;;;;;;17.72;27.62;98818.56;25090;1312;3052532;-61
2022/05/18 09:48:55;;;;;;;5.30;2.20;;;;;;;17.93;27.21;98821.50;25048;1312;3026273;-64
2022/05/18 09:51:25;;;;;;;7.20;2.20;;;;;;;18.38;26.00;98814.02;25085;1313;3052248;-64
2022/05/18 09:53:54;;;;;;;12.30;2.40;;;;;;;18.68;25.06;98813.81;25101;1312;3026377;-61
2022/05/18 09:56:29;;;;;;;7.80;2.10;;;;;;;18.77;24.77;98813.98;25016;1313;3026621;-61
2022/05/18 09:59:01;;;;;;;6.30;2.40;;;;;;;18.98;24.57;98806.07;25114;1313;3049262;-61
2022/05/18 10:07:31;;;;;;;11.50;2.50;;;;;;;19.42;24.94;98806.43;25080;1315;3071237;-63
2022/05/18 10:10:13;;;;;;;7.00;2.10;;;;;;;19.46;24.66;98808.45;25100;1313;3050965;-61
2022/05/18 10:13:03;;;;;;;6.80;1.90;;;;;;;19.33;24.33;98800.76;25117;1313;3055118;-63
2022/05/18 10:15:41;;;;;;;6.00;2.70;;;;;;;19.20;24.53;98796.30;25080;1312;3055451;-59
2022/05/18 10:18:18;;;;;;;8.60;1.90;;;;;;;19.04;23.95;98802.56;25124;1313;3057592;-61
2022/05/18 10:21:09;;;;;;;8.40;2.00;;;;;;;19.00;23.89;98806.77;25047;1315;3054050;-62
2022/05/18 10:23:50;;;;;;;9.30;1.80;;;;;;;18.80;23.20;98811.33;25108;1312;3055154;-64
2022/05/18 10:26:33;;;;;;;5.90;2.00;;;;;;;18.54;23.54;98810.30;25026;1312;3053810;-60
2022/05/18 10:29:11;;;;;;;3.00;1.50;;;;;;;18.52;24.28;98816.55;25083;1316;3071551;-62
2022/05/18 10:31:43;;;;;;;11.30;2.20;;;;;;;18.15;24.41;98818.75;25126;1312;3048142;-61
2022/05/18 10:34:22;;;;;;;5.40;1.80;;;;;;;18.07;24.51;98814.97;25070;1312;3026899;-62
2022/05/18 10:36:59;;;;;;;9.20;1.50;;;;;;;17.64;24.55;98816.59;25082;1312;3053024;-62
2022/05/18 10:39:41;;;;;;;5.90;1.40;;;;;;;17.31;24.72;98824.23;25054;1315;3059571;-61
2022/05/18 10:42:09;;;;;;;5.10;1.40;;;;;;;17.44;24.49;98814.54;25041;1315;3050338;-61
2022/05/18 10:44:38;;;;;;;5.50;1.60;;;;;;;17.78;24.13;98812.32;25139;1312;3027073;-59
2022/05/18 10:47:24;;;;;;;5.10;1.30;;;;;;;18.23;24.01;98811.23;25073;1312;3057198;-62
2022/05/18 10:50:24;;;;;;;5.60;1.70;;;;;;;18.69;23.19;98805.87;25034;1312;3049428;-61
2022/05/18 10:53:12;;;;;;;6.60;1.40;;;;;;;18.19;23.54;98819.77;25097;1312;3052799;-62
2022/05/18 10:56:11;;;;;;;7.20;1.90;;;;;;;17.67;23.70;98817.23;25074;1312;3051956;-61
2022/05/18 10:58:43;;;;;;;7.70;1.60;;;;;;;17.62;23.79;98813.59;25120;1315;3069689;-60
2022/05/18 11:01:19;;;;;;;5.90;1.60;;;;;;;17.64;23.96;98808.13;25115;1316;3026716;-60
2022/05/18 11:03:51;;;;;;;4.80;1.40;;;;;;;18.08;24.08;98812.15;25139;1313;3052142;-60
2022/05/18 11:06:23;;;;;;;8.50;1.30;;;;;;;18.04;23.89;98820.74;25115;1313;3026424;-60
2022/05/18 11:08:53;;;;;;;4.70;1.20;;;;;;;17.82;23.87;98825.07;25114;1313;3027022;-63
2022/05/18 11:11:45;;;;;;;5.10;1.50;;;;;;;17.67;24.03;98829.70;25035;1315;3026510;-63
2022/05/18 11:14:19;;;;;;;8.70;1.40;;;;;;;17.26;24.50;98823.05;25101;1313;3052946;-62
2022/05/18 11:17:05;;;;;;;6.10;1.40;;;;;;;17.14;24.83;98827.92;25160;1312;3055896;-60
2022/05/18 11:19:37;;;;;;;4.90;1.70;;;;;;;17.31;24.75;98829.05;25098;1316;3052844;-62
2022/05/18 11:22:37;;;;;;;5.70;1.30;;;;;;;17.66;24.64;98815.98;25111;1316;3026524;-60
2022/05/18 11:25:27;;;;;;;5.00;1.10;;;;;;;18.00;23.59;98814.23;25137;1314;3054454;-62
2022/05/18 11:28:00;;;;;;;4.20;1.30;;;;;;;18.36;22.65;98809.70;25098;1315;3071428;-61
2022/05/18 11:30:32;;;;;;;3.50;1.30;;;;;;;18.60;22.07;98808.04;25118;1315;3026798;-61
2022/05/18 11:33:16;;;;;;;1.90;1.00;;;;;;;18.92;21.75;98799.76;25109;1312;3026335;-60
2022/05/18 11:36:01;;;;;;;3.80;1.20;;;;;;;18.98;21.82;98804.70;25079;1315;3052961;-59
2022/05/18 11:38:31;;;;;;;6.70;1.20;;;;;;;18.52;22.32;98821.17;25119;1312;3059230;-61
2022/05/18 11:41:15;;;;;;;2.50;1.00;;;;;;;18.65;22.42;98812.68;25086;1315;3026819;-63
2022/05/18 11:43:53;;;;;;;6.50;1.60;;;;;;;19.09;21.49;98814.45;25131;1312;3055408;-62
2022/05/18 11:46:22;;;;;;;6.10;1.20;;;;;;;19.66;20.89;98816.54;25104;1313;3054609;-60
2022/05/18 11:49:21;;;;;;;4.80;1.30;;;;;;;19.96;21.05;98809.27;25146;1312;3026643;-60
2022/05/18 11:51:56;;;;;;;7.00;1.00;;;;;;;20.04;21.25;98812.09;25155;1313;3049486;-62
2022/05/18 11:54:40;;;;;;;5.20;1.10;;;;;;;19.77;21.47;98813.91;25050;1313;3054611;-61
2022/05/18 11:57:48;;;;;;;5.30;1.00;;;;;;;19.22;21.69;98822.15;25070;1317;3053972;-62